Stone Creek, OH (43840)

11:55 AM EST on January 23, 2017 (GMT -0500)
Old Town Valley | | Change Station
Active Advisory: Small Craft Advisory

Elev 666 ft 40.42 °N, 81.47 °W | Updated 49 seconds ago

Overcast
Overcast
48.7 °F
Feels Like 49 °F
N
2.2
Wind Variable Wind from ESE

Today
High -- | Low -- °F
--% Chance of Precip.
Yesterday
High -- | Low -- °F
Precip. -- in
Pressure 29.54 in
Visibility 10.0 miles
Clouds Overcast 2900 ft
Windchill 49 °F
Dew Point 44 °F
Humidity 85%
Rainfall 0.07 in
Snow Depth Not available.
7:42 AM 5:34 PM
Waning Crescent, 17% visible
METAR KPHD 231653Z AUTO 08007KT 10SM OVC029 10/06 A2954 RMK AO2 SLP002 T01000061
Pressure 29.54 in
Visibility 10.0 miles
Clouds Overcast 2900 ft
Windchill 49 °F
Dew Point 44 °F
Humidity 85%
Rainfall 0.07 in
Snow Depth Not available.
7:42 AM 5:34 PM
Waning Crescent, 17% visible
METAR KPHD 231653Z AUTO 08007KT 10SM OVC029 10/06 A2954 RMK AO2 SLP002 T01000061

Get Your Daily Forecast Email!

Thanks for signing up!

Be on the lookout for a verification email in your inbox.

You'll start receiving the daily forecast at 8 AM.

×

10-Day Weather Forecast

Almanac

Astronomy

Jan. 23, 2017 Rise Set
Actual Time
Civil Twilight
Nautical Twilight
Astronomical Twilight
Moon
Length of Visible Light
Length of Day
Tomorrow will be .
, % of the Moon is Illuminated

Today's Extremes

State Highs State Lows

Community

WunderPhotos

Upload Photos

1,962,540 photos uploaded!

WunderBlog® & News

Nearby

Air Quality

  Air Quality AQ Index Pollutant
Not available.

Snow Depth

Station Depth Elevation

Earthquake Activity

City Distance Mag. Time & Date
Minimum magnitude displayed is 2.5.

Coastal Water Temperatures

Place Temperature

Stations

Nearby Weather Stations

Station Location Temp. Windchill Dew Point Humidity Wind Precip. Elev Updated Type
                   

Watches & Warnings

Small Craft Advisory
Issued: 9:23 AM EST Jan. 23, 2017 – National Weather Service

... Small Craft Advisory remains in effect until 4 am EST
Tuesday...

* winds... northeast 10 to 20 knots.

* Waves... 3 to 5 feet.

Precautionary/preparedness actions...

A Small Craft Advisory is issued when waves of 4 feet or more are
expected or wind speeds reach 21 to 33 knots which may produce
hazardous conditions to small craft. Inexperienced mariners...
especially those operating smaller vessels... should stay in port
during these conditions.